Time;durP1;ratioP1;P1;durP2;ratioP2;P2;SDS_P1;SDS_P2;PMS_P1;PMS_P2;Temp;Humidity;BMP_temperature;BMP_pressure;BME280_temperature;BME280_humidity;BME280_pressure;Samples;Min_cycle;Max_cycle;Signal;HPM_P1;HPM_P2
2023/03/07 00:00:35;;;;;;;5.55;1.50;;;4.00;99.90;;;;;;5039019;28;20033;-74
2023/03/07 00:03:01;;;;;;;2.60;1.63;;;4.00;99.90;;;;;;5033507;28;20468;-76
2023/03/07 00:05:27;;;;;;;2.28;1.63;;;4.00;99.90;;;;;;5031182;28;20537;-72
2023/03/07 00:07:53;;;;;;;3.22;1.85;;;4.10;99.90;;;;;;5028618;28;20033;-79
2023/03/07 00:10:19;;;;;;;2.53;1.70;;;4.10;99.90;;;;;;5033019;28;20045;-81
2023/03/07 00:12:44;;;;;;;3.15;1.60;;;3.90;99.90;;;;;;5032448;28;20394;-76
2023/03/07 00:15:10;;;;;;;6.32;1.70;;;4.00;99.90;;;;;;5032018;28;20499;-74
2023/03/07 00:17:37;;;;;;;2.50;1.38;;;3.80;99.90;;;;;;5035247;28;20056;-77
2023/03/07 00:20:07;;;;;;;2.35;1.30;;;3.80;99.90;;;;;;5033397;28;20087;-74
2023/03/07 00:22:36;;;;;;;2.97;1.40;;;3.90;99.90;;;;;;5032025;28;20037;-78
2023/03/07 00:25:03;;;;;;;4.30;1.83;;;3.90;99.90;;;;;;5035653;28;21425;-76
2023/03/07 00:27:30;;;;;;;5.45;2.13;;;3.90;99.90;;;;;;5035835;28;20119;-76
2023/03/07 00:29:55;;;;;;;4.45;2.13;;;3.80;99.90;;;;;;5037299;28;20064;-80
2023/03/07 00:32:21;;;;;;;3.58;2.28;;;3.80;99.90;;;;;;5035335;28;20111;-76
2023/03/07 00:34:47;;;;;;;2.88;2.00;;;3.80;99.90;;;;;;5035984;28;20483;-75
2023/03/07 00:37:14;;;;;;;3.30;1.58;;;3.80;99.90;;;;;;5038997;28;20048;-73
2023/03/07 00:39:40;;;;;;;4.38;1.80;;;3.80;99.90;;;;;;5035517;28;20047;-77
2023/03/07 00:42:06;;;;;;;6.07;1.60;;;3.80;99.90;;;;;;5031633;28;20041;-71
2023/03/07 00:44:31;;;;;;;4.07;1.83;;;4.00;99.90;;;;;;5033777;28;20037;-77
2023/03/07 00:46:58;;;;;;;5.60;2.00;;;4.00;99.90;;;;;;5035275;28;20124;-82
2023/03/07 00:49:24;;;;;;;7.60;1.77;;;3.80;99.90;;;;;;5034600;28;20052;-79
2023/03/07 00:51:49;;;;;;;5.05;1.95;;;4.00;99.90;;;;;;5033545;28;20041;-79
2023/03/07 00:54:15;;;;;;;5.03;1.73;;;3.90;99.90;;;;;;5055808;28;20199;-73
2023/03/07 00:56:41;;;;;;;5.50;1.73;;;3.90;99.90;;;;;;5033034;28;20098;-74
2023/03/07 00:59:07;;;;;;;2.72;1.60;;;3.90;99.90;;;;;;5037903;28;20044;-79
2023/03/07 01:01:32;;;;;;;5.50;1.70;;;3.80;99.90;;;;;;5035812;28;20186;-74
2023/03/07 01:03:58;;;;;;;5.28;1.50;;;3.80;99.90;;;;;;5032124;28;20091;-75
2023/03/07 01:06:26;;;;;;;5.30;1.42;;;3.80;99.90;;;;;;5031919;28;20123;-75
2023/03/07 01:08:52;;;;;;;6.78;1.63;;;3.80;99.90;;;;;;5032991;28;20069;-73
2023/03/07 01:11:17;;;;;;;4.68;1.40;;;3.90;99.90;;;;;;5053424;28;20094;-73
2023/03/07 01:13:43;;;;;;;5.50;1.38;;;3.90;99.90;;;;;;5035812;28;20677;-73
2023/03/07 01:16:17;;;;;;;6.13;1.60;;;3.80;99.90;;;;;;5035637;28;20506;-74
2023/03/07 01:18:44;;;;;;;4.53;1.23;;;3.80;99.90;;;;;;5036234;28;20033;-75
2023/03/07 01:21:25;;;;;;;5.82;1.35;;;3.80;99.90;;;;;;5027595;28;20086;-71
2023/03/07 01:23:51;;;;;;;4.93;1.20;;;3.90;99.90;;;;;;5040349;28;20042;-72
2023/03/07 01:26:19;;;;;;;4.28;1.55;;;3.80;99.90;;;;;;5041478;28;20087;-70
2023/03/07 01:28:48;;;;;;;5.70;1.30;;;3.70;99.90;;;;;;5032046;28;20052;-72
2023/03/07 01:31:14;;;;;;;5.70;1.48;;;3.80;99.90;;;;;;5035235;28;20077;-70
2023/03/07 01:33:40;;;;;;;4.18;1.40;;;3.80;99.90;;;;;;5021996;28;20095;-74
2023/03/07 01:36:34;;;;;;;4.85;1.38;;;3.70;99.90;;;;;;5037354;28;20037;-71
2023/03/07 01:39:05;;;;;;;4.80;1.45;;;3.70;99.90;;;;;;5035170;28;20131;-73
2023/03/07 01:41:32;;;;;;;4.97;1.40;;;3.70;99.90;;;;;;5039583;28;20492;-73
2023/03/07 01:44:04;;;;;;;4.28;1.48;;;3.50;99.90;;;;;;5037580;28;20038;-75
2023/03/07 01:46:37;;;;;;;5.35;1.60;;;3.60;99.90;;;;;;5041955;28;20427;-75
2023/03/07 01:49:27;;;;;;;5.68;1.58;;;3.60;99.90;;;;;;5035466;28;20538;-70
2023/03/07 01:52:11;;;;;;;7.40;1.80;;;3.70;99.90;;;;;;5030483;28;20037;-73
2023/03/07 01:54:47;;;;;;;7.10;1.80;;;3.50;99.90;;;;;;5035607;28;20119;-73
2023/03/07 01:57:15;;;;;;;6.82;1.52;;;3.60;99.90;;;;;;5038849;28;20357;-70
2023/03/07 01:59:45;;;;;;;5.97;1.70;;;3.60;99.90;;;;;;5051660;28;20109;-74
2023/03/07 02:02:16;;;;;;;7.28;1.70;;;3.50;99.90;;;;;;5037653;28;20038;-79
2023/03/07 02:05:08;;;;;;;6.90;2.20;;;3.40;99.90;;;;;;5034566;28;20040;-72
2023/03/07 02:07:40;;;;;;;6.32;1.60;;;3.40;99.90;;;;;;5034785;28;20102;-72
2023/03/07 02:10:06;;;;;;;9.30;1.60;;;3.30;99.90;;;;;;5036093;28;20459;-73
2023/03/07 02:12:33;;;;;;;9.32;1.60;;;3.40;99.90;;;;;;5037791;28;20444;-74
2023/03/07 02:15:00;;;;;;;8.88;1.50;;;3.50;99.90;;;;;;5030285;28;20396;-71
2023/03/07 02:17:26;;;;;;;6.85;1.35;;;3.40;99.90;;;;;;5051493;28;20150;-73
2023/03/07 02:20:06;;;;;;;8.27;1.80;;;3.30;99.90;;;;;;5033467;28;20045;-74
2023/03/07 02:22:32;;;;;;;6.65;1.38;;;3.40;99.90;;;;;;5034998;28;20045;-74
2023/03/07 02:25:17;;;;;;;9.43;1.55;;;3.30;99.90;;;;;;5030577;28;20033;-73
2023/03/07 02:27:44;;;;;;;9.68;1.50;;;3.40;99.90;;;;;;5035449;28;20180;-75
2023/03/07 02:30:11;;;;;;;10.13;1.50;;;3.40;99.90;;;;;;5036827;28;20462;-73
2023/03/07 02:32:36;;;;;;;9.25;1.65;;;3.40;99.90;;;;;;5034996;28;20440;-72
2023/03/07 02:35:17;;;;;;;8.38;1.27;;;3.50;99.90;;;;;;5037599;28;20094;-72
2023/03/07 02:37:46;;;;;;;5.72;1.60;;;3.50;99.90;;;;;;5030932;28;20060;-74
2023/03/07 02:40:15;;;;;;;6.05;1.38;;;3.60;99.90;;;;;;5037904;28;20475;-71
2023/03/07 02:42:42;;;;;;;8.82;1.60;;;3.40;99.90;;;;;;5030891;28;20036;-70
2023/03/07 02:45:11;;;;;;;11.27;1.88;;;3.40;99.90;;;;;;5034291;28;20108;-70
2023/03/07 02:47:37;;;;;;;12.48;1.40;;;3.40;99.90;;;;;;5037019;28;20534;-72
2023/03/07 02:50:04;;;;;;;11.70;1.52;;;3.50;99.90;;;;;;5035469;28;20045;-72
2023/03/07 02:52:29;;;;;;;7.97;1.40;;;3.40;99.90;;;;;;5040300;28;20051;-76
2023/03/07 02:54:57;;;;;;;8.35;1.20;;;3.40;99.90;;;;;;5038807;28;20044;-73
2023/03/07 02:57:24;;;;;;;11.10;1.55;;;3.50;99.90;;;;;;5037205;28;20056;-75
2023/03/07 02:59:50;;;;;;;8.52;1.50;;;3.40;99.90;;;;;;5036774;28;20065;-72
2023/03/07 03:02:15;;;;;;;10.02;1.38;;;3.50;99.90;;;;;;5015885;28;20052;-73
2023/03/07 03:04:41;;;;;;;11.23;1.42;;;3.50;99.90;;;;;;5035046;28;20033;-72
2023/03/07 03:07:07;;;;;;;10.02;1.45;;;3.50;99.90;;;;;;5032063;28;20038;-71
2023/03/07 03:09:32;;;;;;;7.25;1.73;;;3.40;99.90;;;;;;5036530;28;20041;-71
2023/03/07 03:11:58;;;;;;;9.38;1.65;;;3.40;99.90;;;;;;5037339;28;20095;-71
2023/03/07 03:14:24;;;;;;;7.53;1.60;;;3.30;99.90;;;;;;5034285;28;20038;-74
2023/03/07 03:16:52;;;;;;;9.60;1.75;;;3.40;99.90;;;;;;5012480;28;1097987;-69
2023/03/07 03:19:17;;;;;;;10.05;1.45;;;3.40;99.90;;;;;;5035640;28;20138;-69
2023/03/07 03:21:43;;;;;;;10.40;1.40;;;3.30;99.90;;;;;;5050232;28;20060;-76
2023/03/07 03:24:09;;;;;;;9.10;2.10;;;3.30;99.90;;;;;;5041334;28;20053;-73
2023/03/07 03:26:35;;;;;;;12.68;1.58;;;3.30;99.90;;;;;;5036062;28;20040;-73
2023/03/07 03:29:02;;;;;;;9.60;1.70;;;3.30;99.90;;;;;;5040791;28;20041;-70
2023/03/07 03:31:29;;;;;;;11.50;1.40;;;3.30;99.90;;;;;;5051498;28;20514;-73
2023/03/07 03:33:55;;;;;;;9.23;1.52;;;3.40;99.90;;;;;;5034951;28;20033;-71
2023/03/07 03:36:24;;;;;;;11.50;1.52;;;3.40;99.90;;;;;;5035727;28;20261;-69
2023/03/07 03:38:55;;;;;;;8.35;1.48;;;3.40;99.90;;;;;;5036598;28;20395;-69
2023/03/07 03:41:21;;;;;;;10.93;1.67;;;3.50;99.90;;;;;;5031422;28;20500;-70
2023/03/07 03:43:47;;;;;;;13.52;1.80;;;3.60;99.90;;;;;;5034465;28;20040;-74
2023/03/07 03:46:13;;;;;;;16.42;2.15;;;3.70;99.90;;;;;;5038372;28;20041;-74
2023/03/07 03:48:39;;;;;;;8.10;1.40;;;3.70;99.90;;;;;;5034014;28;20491;-71
2023/03/07 03:51:15;;;;;;;15.10;1.73;;;3.70;99.90;;;;;;5032140;28;20471;-71
2023/03/07 03:53:41;;;;;;;7.82;1.20;;;3.70;99.90;;;;;;5016801;28;20036;-73
2023/03/07 03:56:10;;;;;;;9.85;1.20;;;3.80;99.90;;;;;;5033822;28;20048;-73
2023/03/07 03:58:36;;;;;;;9.27;1.33;;;3.80;99.90;;;;;;5035097;28;20040;-70
2023/03/07 04:01:07;;;;;;;9.73;2.13;;;3.80;99.90;;;;;;5033759;28;20046;-70
2023/03/07 04:03:34;;;;;;;7.45;1.20;;;3.80;99.90;;;;;;5035857;28;20120;-76
2023/03/07 04:06:01;;;;;;;8.23;1.20;;;3.80;99.90;;;;;;5035366;28;20041;-73
2023/03/07 04:08:27;;;;;;;9.93;1.10;;;3.80;99.90;;;;;;5037194;28;20045;-70
2023/03/07 04:10:53;;;;;;;6.72;1.00;;;3.80;99.90;;;;;;5033109;28;20103;-70
2023/03/07 04:13:18;;;;;;;11.63;1.50;;;3.80;99.90;;;;;;5030104;28;20037;-70
2023/03/07 04:15:44;;;;;;;10.85;1.17;;;3.80;99.90;;;;;;5035804;28;20041;-74
2023/03/07 04:18:09;;;;;;;9.77;1.40;;;3.80;99.90;;;;;;5039345;28;20252;-72
2023/03/07 04:20:35;;;;;;;8.65;1.10;;;3.80;99.90;;;;;;5055978;28;20515;-69
2023/03/07 04:23:00;;;;;;;10.93;1.45;;;3.70;99.90;;;;;;5035770;28;20052;-68
2023/03/07 04:25:26;;;;;;;11.27;1.30;;;3.70;99.90;;;;;;5035061;28;20559;-72
2023/03/07 04:27:52;;;;;;;11.02;1.30;;;3.70;99.90;;;;;;5036350;28;20111;-77
2023/03/07 04:30:17;;;;;;;5.60;0.75;;;3.80;99.90;;;;;;5040749;28;20040;-69
2023/03/07 04:32:43;;;;;;;8.88;1.42;;;3.70;99.90;;;;;;5031695;28;20499;-74
2023/03/07 04:35:08;;;;;;;5.60;1.20;;;3.70;99.90;;;;;;5041541;28;20088;-71
2023/03/07 04:37:34;;;;;;;7.95;1.63;;;3.70;99.90;;;;;;5035310;28;20041;-69
2023/03/07 04:39:59;;;;;;;9.82;1.35;;;3.70;99.90;;;;;;5035581;28;20484;-74
2023/03/07 04:42:25;;;;;;;10.27;1.10;;;3.60;99.90;;;;;;5038313;28;20048;-68
2023/03/07 04:44:51;;;;;;;6.68;1.33;;;3.60;99.90;;;;;;5051472;28;20095;-71
2023/03/07 04:47:16;;;;;;;7.03;1.05;;;3.60;99.90;;;;;;5041644;28;20047;-69
2023/03/07 04:49:42;;;;;;;8.55;1.38;;;3.60;99.90;;;;;;5036765;28;20049;-70
2023/03/07 04:52:07;;;;;;;6.57;1.13;;;3.50;99.90;;;;;;5035302;28;20033;-70
2023/03/07 04:54:33;;;;;;;8.95;2.15;;;3.50;99.90;;;;;;5050844;28;20551;-71
2023/03/07 04:56:59;;;;;;;8.82;1.10;;;3.40;99.90;;;;;;5033414;28;20052;-70
2023/03/07 04:59:24;;;;;;;9.63;1.30;;;3.40;99.90;;;;;;5039597;28;20539;-72
2023/03/07 05:01:50;;;;;;;10.45;1.42;;;3.40;99.90;;;;;;5033181;28;20048;-76
2023/03/07 05:04:15;;;;;;;8.23;1.08;;;3.40;99.90;;;;;;5035737;28;20041;-73
2023/03/07 05:06:41;;;;;;;9.50;1.70;;;3.40;99.90;;;;;;5036321;28;20103;-69
2023/03/07 05:09:07;;;;;;;12.23;1.20;;;3.40;99.90;;;;;;5031261;28;20044;-68
2023/03/07 05:11:32;;;;;;;12.13;1.23;;;3.40;99.90;;;;;;5030038;28;20078;-69
2023/03/07 05:13:58;;;;;;;7.68;1.00;;;3.30;99.90;;;;;;5039215;28;20055;-70
2023/03/07 05:16:23;;;;;;;5.95;1.02;;;3.30;99.90;;;;;;5036557;28;20060;-69
2023/03/07 05:18:49;;;;;;;10.65;1.40;;;3.30;99.90;;;;;;5032090;28;20037;-71
2023/03/07 05:21:14;;;;;;;8.68;1.20;;;3.30;99.90;;;;;;5030581;28;20052;-68
2023/03/07 05:23:40;;;;;;;5.55;1.00;;;3.30;99.90;;;;;;5034296;28;20028;-69
2023/03/07 05:26:05;;;;;;;6.88;1.13;;;3.30;99.90;;;;;;5031744;28;20032;-68
2023/03/07 05:28:31;;;;;;;12.98;1.30;;;3.20;99.90;;;;;;5035607;28;20040;-69
2023/03/07 05:30:57;;;;;;;6.53;1.35;;;3.20;99.90;;;;;;5036603;28;20048;-69
2023/03/07 05:33:22;;;;;;;12.02;1.60;;;3.30;99.90;;;;;;5030352;28;20090;-68
2023/03/07 05:35:48;;;;;;;7.78;1.30;;;3.20;99.90;;;;;;5032754;28;20048;-68
2023/03/07 05:38:14;;;;;;;10.52;1.50;;;3.20;99.90;;;;;;5028561;28;20409;-68
2023/03/07 05:40:40;;;;;;;14.30;1.90;;;3.20;99.90;;;;;;5034192;28;20040;-70
2023/03/07 05:43:05;;;;;;;8.30;1.27;;;3.30;99.90;;;;;;5034973;28;20561;-70
2023/03/07 05:45:31;;;;;;;9.82;1.30;;;3.30;99.90;;;;;;5052243;28;20036;-68
2023/03/07 05:47:56;;;;;;;11.75;1.90;;;3.30;99.90;;;;;;5034826;28;20043;-68
2023/03/07 05:50:22;;;;;;;7.15;1.20;;;3.30;99.90;;;;;;5036430;28;20063;-68
2023/03/07 05:52:48;;;;;;;9.45;1.52;;;3.20;99.90;;;;;;5034193;28;20459;-69
2023/03/07 05:55:14;;;;;;;6.93;1.42;;;3.30;99.90;;;;;;5036119;28;20037;-68
2023/03/07 05:57:40;;;;;;;8.27;1.23;;;3.20;99.90;;;;;;5031171;28;20037;-70
2023/03/07 06:00:07;;;;;;;9.43;1.50;;;3.20;99.90;;;;;;5049129;28;20033;-68
2023/03/07 06:02:32;;;;;;;7.10;1.30;;;3.20;99.90;;;;;;5030003;28;20034;-70
2023/03/07 06:04:58;;;;;;;10.35;1.25;;;3.30;99.90;;;;;;5038247;28;20040;-68
2023/03/07 06:07:23;;;;;;;10.65;1.17;;;3.30;99.90;;;;;;5049463;28;20044;-68
2023/03/07 06:09:49;;;;;;;6.65;0.93;;;3.30;99.90;;;;;;5031145;28;20124;-69
2023/03/07 06:12:15;;;;;;;6.57;1.00;;;3.40;99.90;;;;;;5037612;28;20487;-69
2023/03/07 06:14:40;;;;;;;7.28;1.17;;;3.50;99.90;;;;;;5033253;28;20030;-73
2023/03/07 06:17:06;;;;;;;6.45;1.02;;;3.50;99.90;;;;;;5031238;28;20255;-70
2023/03/07 06:19:32;;;;;;;2.80;0.60;;;3.50;99.90;;;;;;5033475;28;20033;-74
2023/03/07 06:21:58;;;;;;;6.35;1.17;;;3.50;99.90;;;;;;5046113;28;20124;-70
2023/03/07 06:24:24;;;;;;;4.85;1.00;;;3.40;99.90;;;;;;5047715;28;20128;-70
2023/03/07 06:26:49;;;;;;;4.43;0.90;;;3.40;99.90;;;;;;5031100;28;20180;-74
2023/03/07 06:29:15;;;;;;;4.65;0.82;;;3.30;99.90;;;;;;5035539;28;20488;-69
2023/03/07 06:31:40;;;;;;;9.25;1.20;;;3.20;99.90;;;;;;5035730;28;20072;-72
2023/03/07 06:34:07;;;;;;;7.90;1.30;;;3.30;99.90;;;;;;5035637;28;20128;-70
2023/03/07 06:36:32;;;;;;;7.35;1.13;;;3.30;99.90;;;;;;5038921;28;20041;-69
2023/03/07 06:38:58;;;;;;;4.25;0.85;;;3.30;99.90;;;;;;5030808;28;20404;-70
2023/03/07 06:41:24;;;;;;;3.40;1.00;;;3.20;99.90;;;;;;5031666;28;20060;-72
2023/03/07 06:43:51;;;;;;;5.78;0.85;;;3.00;99.90;;;;;;5036626;28;20025;-74
2023/03/07 06:46:19;;;;;;;4.35;0.93;;;2.70;99.90;;;;;;5034312;28;20132;-72
2023/03/07 06:48:44;;;;;;;5.70;0.95;;;2.40;99.90;;;;;;5035074;28;20037;-69
2023/03/07 06:51:10;;;;;;;5.38;0.88;;;2.20;99.90;;;;;;5036222;28;20064;-72
2023/03/07 06:53:35;;;;;;;2.88;0.60;;;2.10;99.90;;;;;;5041083;28;20044;-72
2023/03/07 06:56:01;;;;;;;4.97;0.68;;;2.10;99.90;;;;;;5042632;28;20037;-69
2023/03/07 06:58:27;;;;;;;2.70;0.65;;;2.00;99.90;;;;;;5035125;28;20048;-70
2023/03/07 07:00:52;;;;;;;4.97;1.10;;;2.00;99.90;;;;;;5040500;28;20041;-68
2023/03/07 07:03:19;;;;;;;10.25;1.38;;;2.00;99.90;;;;;;5032700;28;20518;-68
2023/03/07 07:05:44;;;;;;;11.93;1.10;;;2.10;99.90;;;;;;5033917;28;20487;-69
2023/03/07 07:08:11;;;;;;;6.40;1.10;;;2.10;99.90;;;;;;5031037;28;20042;-69
2023/03/07 07:10:36;;;;;;;6.60;1.42;;;2.20;99.90;;;;;;5038390;28;20040;-70
2023/03/07 07:13:03;;;;;;;6.53;1.65;;;2.20;99.90;;;;;;5033504;28;20033;-71
2023/03/07 07:15:29;;;;;;;9.38;1.52;;;2.30;99.90;;;;;;5036734;28;20052;-67
2023/03/07 07:17:55;;;;;;;7.43;1.42;;;2.40;99.90;;;;;;5035191;28;20049;-70
2023/03/07 07:20:22;;;;;;;8.68;1.40;;;2.60;99.90;;;;;;5038850;28;20502;-70
2023/03/07 07:22:48;;;;;;;5.88;1.13;;;2.60;99.90;;;;;;5036571;28;20116;-70
2023/03/07 07:25:13;;;;;;;6.35;0.98;;;2.70;99.90;;;;;;5034027;28;20037;-69
2023/03/07 07:27:39;;;;;;;8.50;1.30;;;2.70;99.90;;;;;;5034483;28;20051;-70
2023/03/07 07:30:06;;;;;;;7.25;1.10;;;2.70;99.90;;;;;;5032916;28;20049;-71
2023/03/07 07:32:31;;;;;;;9.40;0.93;;;2.70;99.90;;;;;;5033965;28;20502;-71
2023/03/07 07:34:57;;;;;;;7.03;1.35;;;2.70;99.90;;;;;;5033819;28;20042;-70
2023/03/07 07:37:23;;;;;;;4.82;0.80;;;2.70;99.90;;;;;;5035679;28;20404;-70
2023/03/07 07:39:49;;;;;;;5.28;0.80;;;2.70;99.90;;;;;;5032902;28;20132;-71
2023/03/07 07:42:15;;;;;;;6.90;0.93;;;2.70;99.90;;;;;;5030391;28;20053;-70
2023/03/07 07:44:42;;;;;;;5.70;0.90;;;2.70;99.90;;;;;;5027330;28;20053;-73
2023/03/07 07:47:07;;;;;;;8.70;1.10;;;2.70;99.90;;;;;;5034086;28;20051;-73
2023/03/07 07:49:34;;;;;;;6.03;1.00;;;2.60;99.90;;;;;;5037618;28;20041;-67
2023/03/07 07:52:00;;;;;;;4.95;1.15;;;2.70;99.90;;;;;;5040348;28;20052;-67
2023/03/07 07:54:25;;;;;;;8.63;1.20;;;2.60;99.90;;;;;;5033734;28;21065;-66
2023/03/07 07:56:51;;;;;;;14.10;1.67;;;2.60;99.90;;;;;;5036621;28;20045;-64
2023/03/07 07:59:17;;;;;;;7.22;1.33;;;2.50;99.90;;;;;;5041867;28;20141;-65
2023/03/07 08:01:42;;;;;;;8.27;1.17;;;2.50;99.90;;;;;;5044139;28;20036;-66
2023/03/07 08:04:08;;;;;;;11.13;1.55;;;2.50;99.90;;;;;;5037848;28;20041;-66
2023/03/07 08:06:33;;;;;;;7.30;1.27;;;2.50;99.90;;;;;;5036829;28;20045;-66
2023/03/07 08:08:59;;;;;;;9.50;1.60;;;2.50;99.90;;;;;;5036747;28;20051;-67
2023/03/07 08:11:25;;;;;;;11.32;1.33;;;2.50;99.90;;;;;;5038551;28;20100;-67
2023/03/07 08:13:51;;;;;;;7.20;1.50;;;2.50;99.90;;;;;;5043524;28;20428;-66
2023/03/07 08:16:19;;;;;;;5.72;1.15;;;2.60;99.90;;;;;;5044149;28;20041;-66
2023/03/07 08:18:50;;;;;;;11.95;1.48;;;2.70;99.90;;;;;;5043666;28;20029;-66
2023/03/07 08:21:16;;;;;;;7.78;1.35;;;2.70;99.90;;;;;;5028949;28;20361;-67
2023/03/07 08:23:41;;;;;;;8.88;1.23;;;2.80;99.90;;;;;;5038343;28;20126;-67
2023/03/07 08:26:09;;;;;;;7.68;1.27;;;2.80;99.90;;;;;;5043747;28;20048;-67
2023/03/07 08:28:36;;;;;;;6.18;1.35;;;2.90;99.90;;;;;;5043207;28;20049;-66
2023/03/07 08:31:10;;;;;;;6.85;1.48;;;2.80;99.90;;;;;;5051285;28;20040;-67
2023/03/07 08:33:36;;;;;;;9.85;1.38;;;2.90;99.90;;;;;;5041832;28;20048;-67
2023/03/07 08:36:02;;;;;;;9.00;1.17;;;2.90;99.90;;;;;;5038892;28;20060;-66
2023/03/07 08:38:28;;;;;;;5.68;1.30;;;2.90;99.90;;;;;;5035103;28;20087;-66
2023/03/07 08:40:57;;;;;;;11.43;1.60;;;3.00;99.90;;;;;;5028094;28;20554;-66
2023/03/07 08:43:23;;;;;;;17.00;1.98;;;3.00;99.90;;;;;;5041423;28;20041;-65
2023/03/07 08:45:51;;;;;;;9.30;1.52;;;3.00;99.90;;;;;;5046554;28;20040;-67
2023/03/07 08:48:19;;;;;;;10.82;1.48;;;3.00;99.90;;;;;;5046700;28;20045;-67
2023/03/07 08:50:45;;;;;;;7.85;1.40;;;3.00;99.90;;;;;;5036643;28;20045;-65
2023/03/07 08:53:13;;;;;;;10.80;1.73;;;3.00;99.90;;;;;;5040362;28;20047;-67
2023/03/07 08:55:39;;;;;;;7.05;1.33;;;3.10;99.90;;;;;;5040922;28;20280;-67
2023/03/07 08:58:04;;;;;;;8.05;1.30;;;3.10;99.90;;;;;;5049720;28;20139;-66
2023/03/07 09:00:30;;;;;;;8.30;1.67;;;3.20;99.90;;;;;;5033502;28;20492;-67
2023/03/07 09:02:57;;;;;;;9.07;1.67;;;3.10;99.90;;;;;;5030477;28;20083;-66
2023/03/07 09:05:23;;;;;;;7.18;1.63;;;3.20;99.90;;;;;;5033130;28;20045;-66
2023/03/07 09:07:49;;;;;;;10.07;1.40;;;3.20;99.90;;;;;;5050545;28;20033;-65
2023/03/07 09:10:16;;;;;;;10.77;1.88;;;3.40;99.90;;;;;;5043743;28;20111;-65
2023/03/07 09:12:41;;;;;;;9.68;1.63;;;3.40;99.90;;;;;;5040887;28;20045;-67
2023/03/07 09:15:08;;;;;;;11.15;1.75;;;3.50;99.90;;;;;;5047810;28;20124;-66
2023/03/07 09:17:33;;;;;;;8.38;1.63;;;3.60;99.90;;;;;;5045632;28;20048;-66
2023/03/07 09:19:59;;;;;;;16.30;1.67;;;3.60;99.90;;;;;;5038036;28;20199;-66
2023/03/07 09:22:26;;;;;;;5.28;1.30;;;3.60;99.90;;;;;;5050646;28;20040;-66
2023/03/07 09:24:52;;;;;;;12.43;1.60;;;3.60;99.90;;;;;;5048123;28;20048;-65
2023/03/07 09:27:18;;;;;;;11.82;1.77;;;3.60;99.90;;;;;;5043142;28;20041;-66
2023/03/07 09:29:43;;;;;;;7.50;1.17;;;3.80;99.90;;;;;;5045708;28;20044;-66
2023/03/07 09:32:09;;;;;;;13.45;1.65;;;3.80;99.90;;;;;;5031404;28;20136;-65
2023/03/07 09:34:35;;;;;;;17.65;2.20;;;3.80;99.90;;;;;;5050089;28;20041;-67
2023/03/07 09:37:00;;;;;;;8.63;2.10;;;3.90;99.90;;;;;;5045690;28;20037;-66
2023/03/07 09:39:26;;;;;;;12.95;2.20;;;3.90;99.90;;;;;;5047400;28;20045;-66
2023/03/07 09:42:07;;;;;;;7.75;2.58;;;4.00;99.90;;;;;;5044698;28;20044;-67
2023/03/07 09:44:39;;;;;;;10.77;3.88;;;4.10;99.90;;;;;;5040827;28;20099;-66
2023/03/07 09:47:23;;;;;;;8.68;2.95;;;4.10;99.90;;;;;;5045066;28;20095;-66
2023/03/07 09:49:50;;;;;;;10.65;3.40;;;4.00;99.90;;;;;;5046722;28;20139;-66
2023/03/07 09:52:18;;;;;;;12.68;3.60;;;4.10;99.90;;;;;;5042041;28;20476;-65
2023/03/07 09:55:11;;;;;;;17.15;5.05;;;4.20;99.90;;;;;;5043027;28;20041;-66
2023/03/07 09:57:49;;;;;;;15.63;5.75;;;4.20;99.90;;;;;;5044362;28;20083;-66
2023/03/07 10:00:39;;;;;;;17.05;6.13;;;4.20;99.90;;;;;;5042260;28;20033;-66
2023/03/07 10:03:28;;;;;;;7.68;3.72;;;4.20;99.90;;;;;;5041888;28;20412;-66
2023/03/07 10:05:58;;;;;;;6.35;2.00;;;4.20;99.90;;;;;;5034316;28;20083;-66
2023/03/07 10:08:29;;;;;;;2.88;1.10;;;4.10;99.90;;;;;;5041717;28;20037;-67
2023/03/07 10:11:03;;;;;;;3.72;1.20;;;4.10;99.90;;;;;;5041586;28;20039;-66
2023/03/07 10:13:58;;;;;;;5.93;1.20;;;4.10;99.90;;;;;;5048794;28;20132;-67
2023/03/07 10:16:34;;;;;;;7.45;1.25;;;4.10;99.90;;;;;;5006092;28;20140;-66
2023/03/07 10:19:29;;;;;;;6.75;1.15;;;4.10;99.90;;;;;;5043796;28;20045;-67
2023/03/07 10:22:18;;;;;;;6.75;1.83;;;4.10;99.90;;;;;;5038996;28;20037;-66
2023/03/07 10:24:53;;;;;;;7.30;2.03;;;4.10;99.90;;;;;;5030784;28;20044;-67
2023/03/07 10:27:24;;;;;;;7.22;2.15;;;4.20;99.90;;;;;;5033803;28;20049;-66
2023/03/07 10:29:53;;;;;;;6.25;2.22;;;4.20;99.90;;;;;;5049286;28;20052;-65
2023/03/07 10:32:43;;;;;;;6.18;1.35;;;4.20;99.90;;;;;;5044135;28;20041;-67
2023/03/07 10:35:14;;;;;;;4.97;1.30;;;4.40;99.90;;;;;;5048633;28;20049;-67
2023/03/07 10:37:50;;;;;;;6.75;1.10;;;4.40;99.90;;;;;;5044625;28;20507;-66
2023/03/07 10:40:42;;;;;;;8.55;1.90;;;4.30;99.90;;;;;;5042278;28;20716;-66
2023/03/07 10:43:23;;;;;;;10.02;2.40;;;4.40;99.90;;;;;;5029393;28;20147;-67
2023/03/07 10:45:59;;;;;;;5.32;1.17;;;4.40;99.90;;;;;;5039882;28;20079;-66
2023/03/07 10:48:26;;;;;;;5.13;1.10;;;4.50;99.90;;;;;;5041106;28;20137;-66
2023/03/07 10:51:18;;;;;;;6.05;1.20;;;4.60;99.90;;;;;;5038076;28;20045;-67
2023/03/07 10:53:45;;;;;;;3.88;1.20;;;4.60;99.90;;;;;;5016503;28;20634;-66
2023/03/07 10:56:14;;;;;;;11.65;3.63;;;4.60;99.90;;;;;;5048849;28;20052;-66
2023/03/07 10:58:58;;;;;;;11.88;4.40;;;4.60;99.90;;;;;;5048175;28;20060;-66
2023/03/07 11:01:26;;;;;;;13.77;4.72;;;4.70;99.90;;;;;;5038082;28;20559;-67
2023/03/07 11:04:04;;;;;;;18.48;5.88;;;4.80;99.90;;;;;;5044885;28;20503;-67
2023/03/07 11:06:54;;;;;;;16.73;6.25;;;4.90;99.90;;;;;;5029669;28;20084;-66
2023/03/07 11:09:29;;;;;;;20.27;6.03;;;4.90;99.90;;;;;;5040707;28;20068;-66
2023/03/07 11:11:59;;;;;;;15.88;4.47;;;4.80;99.90;;;;;;5036748;28;20276;-65
2023/03/07 11:14:27;;;;;;;6.78;1.95;;;4.90;99.90;;;;;;5045170;28;20055;-65
2023/03/07 11:17:01;;;;;;;6.60;2.17;;;4.90;99.90;;;;;;5045143;28;20068;-66
2023/03/07 11:19:47;;;;;;;5.03;1.80;;;5.10;99.90;;;;;;5033467;28;20033;-65
2023/03/07 11:22:24;;;;;;;5.40;1.73;;;5.20;99.90;;;;;;5030762;28;20037;-67
2023/03/07 11:24:55;;;;;;;6.88;1.40;;;5.20;99.90;;;;;;5045522;28;20043;-67
2023/03/07 11:27:34;;;;;;;9.98;3.50;;;5.30;99.90;;;;;;5053228;28;20041;-67
2023/03/07 11:30:20;;;;;;;6.85;2.70;;;5.30;99.90;;;;;;5045023;28;20044;-65
2023/03/07 11:33:02;;;;;;;13.52;3.90;;;5.30;99.90;;;;;;5034787;28;20053;-65
2023/03/07 11:35:50;;;;;;;7.82;2.22;;;5.30;99.90;;;;;;5040698;28;20056;-66
2023/03/07 11:38:47;;;;;;;13.82;2.88;;;5.30;99.90;;;;;;5049756;28;20076;-67
2023/03/07 11:41:17;;;;;;;6.10;2.53;;;5.30;99.90;;;;;;5046659;28;20508;-66
2023/03/07 11:44:02;;;;;;;6.50;2.00;;;5.40;99.90;;;;;;5058937;28;20104;-66
2023/03/07 11:46:56;;;;;;;6.72;2.30;;;5.40;99.90;;;;;;5051554;28;20041;-65
2023/03/07 11:49:45;;;;;;;6.07;1.90;;;5.40;99.90;;;;;;5050965;28;20037;-67
2023/03/07 11:52:38;;;;;;;7.20;1.25;;;5.50;99.90;;;;;;5058657;28;20041;-66
2023/03/07 11:55:23;;;;;;;7.57;2.35;;;5.60;99.90;;;;;;5056697;28;20036;-66
2023/03/07 11:58:23;;;;;;;6.40;1.83;;;5.60;99.90;;;;;;5051721;28;20127;-67
2023/03/07 12:01:17;;;;;;;7.65;2.10;;;5.70;99.90;;;;;;5062384;28;20499;-67
2023/03/07 12:04:00;;;;;;;9.05;2.85;;;5.80;99.90;;;;;;5044979;28;20500;-66
2023/03/07 12:06:42;;;;;;;9.73;3.13;;;5.80;99.90;;;;;;5047493;28;20079;-67
2023/03/07 12:09:08;;;;;;;10.13;3.20;;;6.00;99.90;;;;;;5044074;28;20567;-65
2023/03/07 12:12:06;;;;;;;6.35;1.15;;;6.10;99.90;;;;;;5031644;28;20136;-66
2023/03/07 12:14:38;;;;;;;6.00;1.10;;;6.10;99.90;;;;;;5044979;28;20049;-66
2023/03/07 12:17:09;;;;;;;5.97;1.33;;;6.10;99.90;;;;;;5047096;28;20115;-66
2023/03/07 12:20:17;;;;;;;6.20;1.95;;;6.00;99.90;;;;;;5048730;28;20029;-66
2023/03/07 12:22:58;;;;;;;6.88;2.30;;;5.90;99.90;;;;;;5044640;28;20100;-66
2023/03/07 12:25:34;;;;;;;10.50;1.70;;;5.90;99.90;;;;;;5037128;28;20037;-66
2023/03/07 12:28:07;;;;;;;8.90;2.10;;;5.80;99.90;;;;;;5047427;28;20093;-65
2023/03/07 12:30:52;;;;;;;9.50;2.80;;;5.70;99.90;;;;;;5037045;28;20136;-66
2023/03/07 12:33:57;;;;;;;12.57;2.60;;;5.60;99.90;;;;;;5035330;28;20047;-68
2023/03/07 12:36:29;;;;;;;8.95;1.95;;;5.40;99.90;;;;;;5043140;28;20077;-65
2023/03/07 12:39:17;;;;;;;5.80;1.58;;;5.40;99.90;;;;;;5049792;28;20041;-67
2023/03/07 12:42:13;;;;;;;2.50;0.65;;;5.40;99.90;;;;;;5044293;28;20053;-65
2023/03/07 12:44:57;;;;;;;2.22;0.40;;;5.40;99.90;;;;;;5062030;28;20065;-65
2023/03/07 12:47:49;;;;;;;2.17;0.65;;;5.10;99.90;;;;;;5048383;28;20404;-68
2023/03/07 12:50:38;;;;;;;3.92;0.80;;;4.70;99.90;;;;;;5036270;28;20405;-67
2023/03/07 12:53:21;;;;;;;4.32;0.65;;;4.50;99.90;;;;;;5041587;28;20065;-68
2023/03/07 12:56:06;;;;;;;2.88;0.65;;;4.40;99.90;;;;;;5039625;28;20055;-69
2023/03/07 12:59:04;;;;;;;4.57;0.60;;;4.40;99.90;;;;;;5050760;28;20090;-68
2023/03/07 13:01:40;;;;;;;4.72;0.90;;;4.50;99.90;;;;;;5045464;28;20037;-72
2023/03/07 13:04:11;;;;;;;5.07;1.20;;;4.60;99.90;;;;;;5046346;28;20065;-71
2023/03/07 13:06:40;;;;;;;5.27;1.20;;;4.70;99.90;;;;;;5044643;28;20132;-71
2023/03/07 13:09:11;;;;;;;6.32;0.70;;;4.80;99.90;;;;;;5051058;28;20055;-66
2023/03/07 13:12:08;;;;;;;4.82;0.95;;;4.90;99.90;;;;;;5044060;28;20118;-67